Time;durP1;ratioP1;P1;durP2;ratioP2;P2;SDS_P1;SDS_P2;PMS_P1;PMS_P2;Temp;Humidity;BMP_temperature;BMP_pressure;BME280_temperature;BME280_humidity;BME280_pressure;Samples;Min_cycle;Max_cycle;Signal;HPM_P1;HPM_P2
2023/10/05 00:01:02;;;;;;;10.70;1.52;;;;;;;22.65;51.31;102333.00;5028760;28;20049;-72
2023/10/05 00:03:30;;;;;;;4.20;0.90;;;;;;;22.92;50.67;102340.91;5011163;28;20413;-72
2023/10/05 00:06:03;;;;;;;4.35;0.82;;;;;;;23.19;49.32;102342.53;5027854;28;20123;-71
2023/10/05 00:08:29;;;;;;;2.25;0.70;;;;;;;22.13;51.75;102347.28;5011890;28;20478;-72
2023/10/05 00:10:54;;;;;;;4.22;0.70;;;;;;;23.62;48.87;102341.72;5023036;28;20083;-71
2023/10/05 00:13:19;;;;;;;4.72;0.95;;;;;;;22.45;51.32;102339.94;5027519;28;20068;-71
2023/10/05 00:15:45;;;;;;;3.85;1.08;;;;;;;22.67;50.46;102347.16;5029521;28;20021;-71
2023/10/05 00:18:14;;;;;;;3.45;0.93;;;;;;;23.55;49.04;102346.44;5010740;28;20021;-72
2023/10/05 00:20:41;;;;;;;8.35;1.63;;;;;;;23.01;50.21;102351.19;5028683;28;20523;-72
2023/10/05 00:23:09;;;;;;;6.25;1.27;;;;;;;21.68;53.09;102345.25;5026670;28;20508;-72
2023/10/05 00:25:35;;;;;;;6.13;1.58;;;;;;;22.57;51.33;102335.09;5007838;28;20030;-72
2023/10/05 00:28:07;;;;;;;3.42;1.15;;;;;;;22.17;51.70;102342.69;5014858;28;20112;-71
2023/10/05 00:30:33;;;;;;;3.67;0.80;;;;;;;22.86;50.69;102332.19;5028049;28;20044;-72
2023/10/05 00:33:00;;;;;;;3.92;0.90;;;;;;;22.49;51.14;102338.03;5010933;28;20482;-72
2023/10/05 00:35:32;;;;;;;8.52;1.27;;;;;;;22.84;49.86;102344.69;5011758;28;20429;-72
2023/10/05 00:38:04;;;;;;;3.35;0.90;;;;;;;22.95;50.08;102343.44;5027827;28;20108;-72
2023/10/05 00:40:36;;;;;;;3.17;0.98;;;;;;;23.26;49.03;102335.16;5007900;28;20053;-72
2023/10/05 00:43:12;;;;;;;2.15;0.93;;;;;;;24.06;47.83;102328.31;5026702;28;20031;-72
2023/10/05 00:45:39;;;;;;;4.82;0.80;;;;;;;23.12;49.38;102338.38;5014679;28;20013;-72
2023/10/05 00:49:03;;;;;;;9.93;1.67;;;;;;;23.79;48.00;102346.34;5032770;28;20017;-72
2023/10/05 00:51:06;;;;;;;1.98;0.75;;;;;;;23.52;48.36;102350.09;5021848;28;20387;-72
2023/10/05 00:53:32;;;;;;;9.07;1.00;;;;;;;22.01;51.82;102347.69;5014608;28;20033;-72
2023/10/05 00:56:08;;;;;;;2.90;1.02;;;;;;;23.29;48.86;102345.69;5030365;28;20021;-72
2023/10/05 00:58:38;;;;;;;3.35;0.95;;;;;;;22.59;50.23;102354.56;5031759;28;20483;-72
2023/10/05 01:01:14;;;;;;;4.65;1.20;;;;;;;23.11;49.04;102346.38;5026203;28;20389;-72
2023/10/05 01:03:59;;;;;;;7.20;1.20;;;;;;;23.73;46.86;102344.81;5027906;28;20372;-72
2023/10/05 01:06:54;;;;;;;9.07;1.05;;;;;;;22.89;47.65;102341.88;5012376;28;20105;-72
2023/10/05 01:11:54;;;;;;;7.97;2.00;;;;;;;23.16;47.36;102337.31;5032326;28;20089;-72
2023/10/05 01:14:23;;;;;;;6.03;1.23;;;;;;;22.73;47.67;102335.41;5030758;28;20053;-72
2023/10/05 01:16:48;;;;;;;3.47;1.05;;;;;;;23.06;47.43;102338.56;5031093;28;20044;-72
2023/10/05 01:19:14;;;;;;;3.30;0.90;;;;;;;22.54;48.12;102330.75;5013367;28;20111;-72
2023/10/05 01:21:42;;;;;;;5.20;0.95;;;;;;;23.76;45.12;102325.97;5013169;28;20033;-72
2023/10/05 01:24:07;;;;;;;3.72;1.10;;;;;;;23.66;44.90;102327.31;5013843;28;20081;-72
2023/10/05 01:26:36;;;;;;;4.55;0.90;;;;;;;24.15;44.04;102327.03;5030144;28;20056;-72
2023/10/05 01:29:02;;;;;;;9.25;1.35;;;;;;;23.46;45.12;102328.97;5031203;28;20053;-72
2023/10/05 01:31:27;;;;;;;1.67;0.88;;;;;;;23.39;45.52;102327.50;5014365;28;20028;-72
2023/10/05 01:33:53;;;;;;;7.15;1.08;;;;;;;23.46;45.23;102326.31;5013706;28;20056;-72
2023/10/05 01:36:22;;;;;;;2.88;0.85;;;;;;;23.97;44.03;102328.69;5029885;28;20033;-71
2023/10/05 01:38:48;;;;;;;3.83;0.85;;;;;;;23.49;43.56;102330.66;5014775;28;20381;-72
2023/10/05 01:41:21;;;;;;;1.95;0.77;;;;;;;23.41;44.69;102331.00;5010355;28;20341;-72
2023/10/05 01:43:47;;;;;;;4.43;0.98;;;;;;;23.32;44.58;102334.88;5010312;28;20072;-72
2023/10/05 01:46:12;;;;;;;4.93;0.90;;;;;;;22.73;45.28;102330.06;5013772;28;20029;-72
2023/10/05 01:48:38;;;;;;;6.20;0.90;;;;;;;23.20;44.64;102336.25;5030566;28;20032;-72
2023/10/05 01:51:23;;;;;;;7.53;0.80;;;;;;;22.61;46.41;102336.72;5017398;28;20037;-72
2023/10/05 01:53:52;;;;;;;4.13;0.90;;;;;;;22.96;45.32;102327.38;5012821;28;20112;-71
2023/10/05 01:56:22;;;;;;;5.15;0.80;;;;;;;23.06;44.74;102338.56;5010973;28;20394;-71
2023/10/05 01:58:53;;;;;;;7.13;1.33;;;;;;;24.01;42.71;102327.63;5012022;28;20029;-71
2023/10/05 02:01:24;;;;;;;8.15;1.52;;;;;;;23.20;44.12;102320.25;5029106;28;20033;-71
2023/10/05 02:03:54;;;;;;;2.50;0.90;;;;;;;23.75;43.00;102326.91;5015745;28;20116;-72
2023/10/05 02:06:20;;;;;;;5.25;0.93;;;;;;;23.82;43.04;102336.41;5018920;28;20025;-71
2023/10/05 02:08:45;;;;;;;5.88;1.30;;;;;;;24.54;41.60;102319.03;5028526;28;20135;-71
2023/10/05 02:11:17;;;;;;;5.40;1.30;;;;;;;23.06;43.19;102321.69;5034701;28;20121;-72
2023/10/05 02:13:43;;;;;;;2.90;0.70;;;;;;;23.84;42.75;102331.84;5011840;28;20083;-71
2023/10/05 02:16:21;;;;;;;5.40;0.90;;;;;;;24.02;42.31;102324.03;5012013;28;20175;-72
2023/10/05 02:18:47;;;;;;;3.65;0.82;;;;;;;23.00;43.99;102322.81;5008288;28;20088;-72
2023/10/05 02:21:19;;;;;;;2.15;0.75;;;;;;;23.65;43.14;102314.91;5018311;28;20485;-72
2023/10/05 02:23:47;;;;;;;8.03;1.17;;;;;;;22.85;43.74;102314.47;4992781;28;20107;-71
2023/10/05 02:28:57;;;;;;;4.88;1.20;;;;;;;22.47;44.31;102315.91;5029114;28;20435;-71
2023/10/05 02:31:23;;;;;;;4.90;0.95;;;;;;;23.27;43.03;102309.31;5027974;28;20029;-71
2023/10/05 02:33:51;;;;;;;3.95;1.13;;;;;;;23.82;42.26;102312.38;5029674;28;20037;-72
2023/10/05 02:36:20;;;;;;;3.22;1.00;;;;;;;23.25;43.25;102311.22;5030722;28;20028;-72
2023/10/05 02:38:56;;;;;;;2.42;0.70;;;;;;;22.71;44.25;102306.16;5012304;28;20041;-71
2023/10/05 02:41:26;;;;;;;6.70;1.40;;;;;;;23.34;43.29;102305.47;5029479;28;20036;-72
2023/10/05 02:43:52;;;;;;;3.17;1.40;;;;;;;24.29;41.69;102300.59;5028450;28;20570;-73
2023/10/05 02:46:20;;;;;;;2.88;1.13;;;;;;;23.39;43.56;102306.16;5029918;28;20518;-72
2023/10/05 02:48:47;;;;;;;3.58;0.68;;;;;;;22.87;44.39;102301.97;5009517;28;20025;-72
2023/10/05 02:51:14;;;;;;;2.25;1.00;;;;;;;23.05;44.39;102299.47;5020103;28;20469;-72
2023/10/05 02:53:56;;;;;;;11.93;1.48;;;;;;;23.10;44.43;102308.16;5028702;28;20059;-72
2023/10/05 02:56:29;;;;;;;2.25;1.45;;;;;;;22.53;45.26;102300.56;5028513;28;20052;-72
2023/10/05 02:59:01;;;;;;;3.90;1.13;;;;;;;24.00;42.64;102307.19;5029429;28;20083;-72
2023/10/05 03:01:27;;;;;;;4.75;1.20;;;;;;;23.65;43.47;102304.22;5012240;28;20430;-72
2023/10/05 03:03:54;;;;;;;5.35;1.35;;;;;;;24.56;41.50;102300.25;4992721;28;20084;-72
2023/10/05 03:06:22;;;;;;;6.82;1.33;;;;;;;23.48;43.42;102308.47;5025150;28;20025;-72
2023/10/05 03:08:50;;;;;;;4.38;1.02;;;;;;;22.13;49.15;102310.00;5028458;28;20051;-72
2023/10/05 03:11:18;;;;;;;2.60;0.73;;;;;;;22.46;48.86;102304.41;5007930;28;20116;-72
2023/10/05 03:13:44;;;;;;;4.32;1.25;;;;;;;22.61;49.29;102300.25;5027175;28;20041;-72
2023/10/05 03:16:12;;;;;;;10.50;1.40;;;;;;;22.94;48.90;102307.03;5028142;28;20029;-72
2023/10/05 03:18:41;;;;;;;4.53;0.88;;;;;;;22.14;50.56;102306.38;5028790;28;20025;-72
2023/10/05 03:21:14;;;;;;;4.25;1.48;;;;;;;22.20;51.00;102307.94;5008084;28;20490;-72
2023/10/05 03:23:41;;;;;;;0.75;0.70;;;;;;;22.95;48.99;102311.44;5010329;28;20445;-72
2023/10/05 03:26:09;;;;;;;2.85;1.55;;;;;;;23.42;47.57;102303.38;5000382;28;20064;-72
2023/10/05 03:28:35;;;;;;;4.35;1.15;;;;;;;22.28;50.63;102310.34;5010196;28;20025;-72
2023/10/05 03:31:07;;;;;;;5.65;1.73;;;;;;;22.10;50.86;102310.06;5011613;28;20413;-72
2023/10/05 03:33:34;;;;;;;2.67;0.95;;;;;;;21.92;51.91;102305.41;5029934;28;20025;-72
2023/10/05 03:36:06;;;;;;;5.07;1.17;;;;;;;22.87;49.31;102307.28;5027526;28;20072;-72
2023/10/05 03:38:32;;;;;;;5.70;0.80;;;;;;;21.57;52.09;102316.31;5028224;28;20083;-72
2023/10/05 03:41:03;;;;;;;7.20;1.63;;;;;;;22.47;50.37;102302.59;5006808;28;20068;-72
2023/10/05 03:43:31;;;;;;;6.25;1.35;;;;;;;21.57;52.70;102315.44;5010052;28;20029;-72
2023/10/05 03:45:57;;;;;;;2.33;1.00;;;;;;;21.99;51.62;102301.59;5013070;28;20430;-71
2023/10/05 03:48:22;;;;;;;5.28;1.02;;;;;;;21.95;51.87;102305.28;5027689;28;20033;-71
2023/10/05 03:50:48;;;;;;;11.95;1.35;;;;;;;21.92;51.80;102294.75;5029584;28;20056;-71
2023/10/05 03:53:15;;;;;;;7.50;1.83;;;;;;;21.38;53.84;102300.06;5011562;28;20530;-71
2023/10/05 03:55:41;;;;;;;5.72;1.52;;;;;;;22.92;50.34;102298.25;5028585;28;20033;-71
2023/10/05 03:58:07;;;;;;;3.13;1.20;;;;;;;22.97;49.54;102312.25;5016194;28;20428;-71
2023/10/05 04:00:35;;;;;;;2.75;0.90;;;;;;;23.09;49.44;102306.44;5045268;28;20033;-71
2023/10/05 04:03:02;;;;;;;4.70;1.15;;;;;;;23.77;46.93;102314.38;5026052;28;20497;-72
2023/10/05 04:05:27;;;;;;;5.30;1.35;;;;;;;22.78;50.09;102302.31;5028104;28;20034;-71
2023/10/05 04:08:00;;;;;;;6.15;1.35;;;;;;;22.51;50.46;102305.06;5007367;28;20030;-71
2023/10/05 04:10:45;;;;;;;4.53;0.90;;;;;;;22.96;49.37;102310.53;5009023;28;20030;-71
2023/10/05 04:13:11;;;;;;;8.05;1.75;;;;;;;23.32;48.27;102302.00;5009568;28;20080;-71
2023/10/05 04:15:39;;;;;;;4.90;1.10;;;;;;;23.33;48.40;102301.09;4999964;28;20029;-71
2023/10/05 04:18:10;;;;;;;5.72;1.10;;;;;;;22.79;49.59;102309.38;5012737;28;20033;-71
2023/10/05 04:20:36;;;;;;;4.03;0.98;;;;;;;22.67;50.30;102304.53;5032298;28;20034;-71
2023/10/05 04:23:01;;;;;;;3.58;1.05;;;;;;;22.11;51.84;102311.81;5032574;28;20040;-71
2023/10/05 04:25:26;;;;;;;7.38;1.23;;;;;;;23.06;49.42;102297.69;5015026;28;20117;-72
2023/10/05 04:27:52;;;;;;;6.47;1.30;;;;;;;22.42;50.38;102305.44;5014554;28;20033;-71
2023/10/05 04:30:23;;;;;;;4.68;1.05;;;;;;;22.78;50.57;102307.63;5031669;28;20405;-71
2023/10/05 04:32:49;;;;;;;6.65;1.38;;;;;;;21.91;52.16;102303.66;5016884;28;20021;-71
2023/10/05 04:35:27;;;;;;;4.22;1.10;;;;;;;21.94;52.17;102298.22;5031557;28;20033;-72
2023/10/05 04:37:54;;;;;;;6.63;1.25;;;;;;;22.50;51.01;102298.03;5030586;28;20033;-71
2023/10/05 04:40:23;;;;;;;1.60;0.90;;;;;;;22.44;50.67;102292.91;5032146;28;20068;-71
2023/10/05 04:42:50;;;;;;;4.00;1.05;;;;;;;22.36;51.29;102292.34;5011725;28;20095;-71
2023/10/05 04:45:16;;;;;;;7.07;1.10;;;;;;;22.33;51.73;102292.41;4994571;28;20042;-71
2023/10/05 04:47:42;;;;;;;2.08;0.98;;;;;;;23.26;49.09;102292.47;5028663;28;20029;-71
2023/10/05 04:50:13;;;;;;;6.95;1.13;;;;;;;22.19;51.31;102299.09;5011492;28;20029;-72
2023/10/05 04:52:39;;;;;;;1.83;1.20;;;;;;;22.93;49.85;102295.53;5026242;28;20236;-71
2023/10/05 04:55:41;;;;;;;6.75;1.17;;;;;;;22.48;50.96;102294.53;5032266;28;20029;-72
2023/10/05 05:05:53;;;;;;;5.60;1.65;;;;;;;22.66;51.18;102308.97;5031498;28;20037;-70
2023/10/05 05:08:18;;;;;;;2.63;1.45;;;;;;;23.02;49.92;102313.78;5030425;28;20163;-72
2023/10/05 05:10:44;;;;;;;2.30;1.10;;;;;;;22.13;51.82;102315.31;5014417;28;20469;-72
2023/10/05 05:13:09;;;;;;;1.35;1.23;;;;;;;22.42;51.81;102310.78;5031218;28;20033;-72
2023/10/05 05:15:38;;;;;;;6.50;2.35;;;;;;;22.14;52.38;102311.72;5014667;28;20030;-72
2023/10/05 05:18:04;;;;;;;4.57;2.00;;;;;;;22.64;50.89;102316.16;5032069;28;20029;-71
2023/10/05 05:20:31;;;;;;;2.65;1.35;;;;;;;22.44;50.79;102319.56;5030930;28;20025;-72
2023/10/05 05:22:56;;;;;;;6.40;1.73;;;;;;;22.65;51.07;102317.03;5010710;28;20053;-72
2023/10/05 05:25:22;;;;;;;6.05;2.03;;;;;;;22.37;51.20;102323.38;4994681;28;20583;-71
2023/10/05 05:27:48;;;;;;;6.47;1.20;;;;;;;22.97;49.48;102330.91;5022383;28;20021;-71
2023/10/05 05:30:24;;;;;;;6.65;1.50;;;;;;;22.86;49.92;102325.97;5014160;28;20031;-72
2023/10/05 05:32:56;;;;;;;6.55;1.65;;;;;;;22.16;51.04;102327.63;5010414;28;20026;-72
2023/10/05 05:35:22;;;;;;;3.55;1.42;;;;;;;22.22;51.38;102329.22;5010354;28;20025;-72
2023/10/05 05:37:48;;;;;;;7.18;1.30;;;;;;;22.25;51.52;102329.09;5025133;28;20551;-72
2023/10/05 05:40:14;;;;;;;4.03;1.30;;;;;;;23.03;49.63;102333.34;5030940;28;20025;-72
2023/10/05 05:42:40;;;;;;;2.75;1.27;;;;;;;23.15;48.67;102332.91;5020269;28;20037;-72
2023/10/05 05:45:15;;;;;;;3.20;1.27;;;;;;;22.75;49.56;102329.09;5013506;28;20021;-72
2023/10/05 05:47:44;;;;;;;4.20;1.58;;;;;;;23.13;48.83;102329.41;5030408;28;20033;-72
2023/10/05 05:50:15;;;;;;;9.73;2.35;;;;;;;22.38;50.32;102333.13;5029172;28;20029;-72
2023/10/05 05:52:41;;;;;;;5.60;1.23;;;;;;;22.85;49.67;102329.59;5030263;28;20035;-72
2023/10/05 05:55:10;;;;;;;7.20;1.40;;;;;;;22.24;51.08;102333.53;5011528;28;20056;-72
2023/10/05 05:57:36;;;;;;;6.43;1.20;;;;;;;22.25;51.04;102337.09;5023979;28;20018;-72
2023/10/05 06:00:11;;;;;;;4.15;1.30;;;;;;;22.28;50.98;102329.84;5024599;28;20025;-72
2023/10/05 06:02:40;;;;;;;2.38;1.10;;;;;;;22.12;51.27;102334.88;5016115;28;20451;-72
2023/10/05 06:05:09;;;;;;;5.72;1.50;;;;;;;22.51;49.79;102337.03;5028089;28;20021;-72
2023/10/05 06:07:38;;;;;;;4.65;1.23;;;;;;;23.20;48.44;102333.59;5012139;28;20040;-72
2023/10/05 06:10:12;;;;;;;2.03;1.38;;;;;;;22.47;50.21;102335.41;5007312;28;20040;-72
2023/10/05 06:12:42;;;;;;;3.08;1.10;;;;;;;22.17;51.17;102337.34;5027932;28;20065;-72
2023/10/05 06:15:09;;;;;;;10.07;1.73;;;;;;;22.35;50.79;102333.19;5029339;28;20052;-72
2023/10/05 06:17:36;;;;;;;3.70;1.48;;;;;;;22.38;50.80;102338.44;5012784;28;20446;-71
2023/10/05 06:20:13;;;;;;;6.53;1.60;;;;;;;22.61;50.10;102336.72;5011856;28;20092;-72
2023/10/05 06:22:39;;;;;;;9.30;3.35;;;;;;;21.82;52.30;102350.09;5000809;28;20033;-72
2023/10/05 06:25:08;;;;;;;4.15;1.80;;;;;;;22.24;51.20;102344.19;5028680;28;20088;-72
2023/10/05 06:27:33;;;;;;;5.53;1.45;;;;;;;22.62;50.45;102346.44;5028747;28;20087;-72
2023/10/05 06:29:58;;;;;;;6.20;1.30;;;;;;;22.36;51.12;102350.94;5028734;28;20489;-72
2023/10/05 06:32:24;;;;;;;8.88;1.80;;;;;;;22.88;49.44;102351.66;5009629;28;20032;-72
2023/10/05 06:34:52;;;;;;;6.28;1.80;;;;;;;22.26;51.06;102349.50;5009648;28;20072;-73
2023/10/05 06:37:17;;;;;;;3.97;1.50;;;;;;;22.60;50.20;102364.28;5022126;28;20022;-72
2023/10/05 06:39:43;;;;;;;9.38;1.63;;;;;;;22.50;50.73;102364.63;5011225;28;20490;-73
2023/10/05 06:42:08;;;;;;;4.03;1.00;;;;;;;22.96;49.68;102361.19;5030186;28;20371;-72
2023/10/05 06:44:33;;;;;;;5.97;1.65;;;;;;;22.50;50.50;102367.31;5030067;28;20035;-72
2023/10/05 06:46:59;;;;;;;4.10;1.20;;;;;;;22.84;50.10;102365.16;5005834;28;20021;-72
2023/10/05 06:49:25;;;;;;;2.60;1.50;;;;;;;22.73;50.81;102368.25;5007156;28;20469;-72
2023/10/05 06:51:52;;;;;;;2.92;1.15;;;;;;;22.74;50.59;102364.66;5026697;28;20490;-72
2023/10/05 06:54:18;;;;;;;3.40;1.15;;;;;;;22.07;52.36;102384.75;5013054;28;20112;-73
2023/10/05 06:56:48;;;;;;;5.13;1.20;;;;;;;22.40;51.63;102392.50;5017338;28;20025;-72
2023/10/05 06:59:14;;;;;;;4.57;1.20;;;;;;;21.73;53.23;102399.16;5011114;28;20112;-72
2023/10/05 07:01:48;;;;;;;6.85;1.40;;;;;;;23.63;48.88;102391.47;5156088;27;20184;-72
2023/10/05 07:04:15;;;;;;;6.72;1.52;;;;;;;22.97;50.35;102392.22;5137954;27;20031;-72
2023/10/05 07:06:41;;;;;;;4.28;1.60;;;;;;;23.34;49.40;102393.50;5120752;28;20487;-72
2023/10/05 07:09:08;;;;;;;1.67;1.30;;;;;;;22.92;49.89;102394.22;5126741;27;20087;-73
2023/10/05 07:11:34;;;;;;;2.35;1.20;;;;;;;23.86;48.62;102399.44;5138695;27;20030;-72
2023/10/05 07:13:59;;;;;;;5.85;1.52;;;;;;;23.99;48.10;102410.47;5137504;27;20027;-73
2023/10/05 07:16:25;;;;;;;4.03;1.20;;;;;;;23.40;48.90;102417.28;5128482;27;20046;-72
2023/10/05 07:18:54;;;;;;;7.32;1.45;;;;;;;23.86;48.40;102427.91;5129741;27;20037;-72
2023/10/05 07:21:20;;;;;;;4.53;1.10;;;;;;;23.46;49.22;102433.03;5138852;27;20031;-73
2023/10/05 07:23:46;;;;;;;5.72;1.67;;;;;;;24.05;47.91;102425.38;5138956;27;20106;-72
2023/10/05 07:26:12;;;;;;;2.97;1.30;;;;;;;24.60;46.98;102431.94;5130661;27;20380;-72
2023/10/05 07:28:38;;;;;;;6.70;1.50;;;;;;;23.06;49.22;102439.88;5116887;27;20585;-72
2023/10/05 07:31:03;;;;;;;2.30;1.13;;;;;;;24.07;48.22;102436.88;5127082;27;20098;-73
2023/10/05 07:33:38;;;;;;;12.07;1.77;;;;;;;24.33;47.37;102434.88;5116656;27;20026;-73
2023/10/05 07:36:05;;;;;;;6.70;1.63;;;;;;;23.90;48.50;102428.69;5098020;27;21153;-72
2023/10/05 07:38:31;;;;;;;10.60;1.75;;;;;;;24.84;46.95;102425.53;5131194;27;20023;-73
2023/10/05 07:40:58;;;;;;;14.20;2.08;;;;;;;24.92;46.41;102435.00;5132918;27;20019;-73
2023/10/05 07:43:27;;;;;;;4.93;1.80;;;;;;;24.62;46.93;102430.09;5120062;27;20064;-72
2023/10/05 07:45:52;;;;;;;7.82;1.08;;;;;;;24.31;47.58;102429.59;5129710;27;20092;-73
2023/10/05 07:48:19;;;;;;;8.73;1.13;;;;;;;23.92;48.58;102429.47;5135661;27;20106;-72
2023/10/05 07:50:48;;;;;;;4.78;1.27;;;;;;;24.11;48.28;102430.47;5127005;27;20432;-73
2023/10/05 07:53:14;;;;;;;4.90;1.88;;;;;;;24.86;46.89;102445.03;5115516;27;20026;-73
2023/10/05 07:55:39;;;;;;;5.43;1.38;;;;;;;24.30;47.62;102445.72;5139019;27;20023;-73
2023/10/05 07:58:05;;;;;;;5.80;1.13;;;;;;;24.86;46.84;102446.84;5120454;27;20080;-72
2023/10/05 08:00:32;;;;;;;7.00;1.30;;;;;;;25.02;46.15;102450.56;5125753;27;20035;-73
2023/10/05 08:02:58;;;;;;;5.90;1.40;;;;;;;24.80;47.26;102461.38;5124342;27;20022;-73
2023/10/05 08:05:23;;;;;;;7.40;1.40;;;;;;;23.97;48.25;102459.53;5126131;27;20034;-72
2023/10/05 08:07:49;;;;;;;6.25;1.40;;;;;;;25.04;46.96;102456.69;5137168;27;20398;-73
2023/10/05 08:10:18;;;;;;;2.38;1.08;;;;;;;25.08;46.61;102453.91;5135049;27;20018;-72
2023/10/05 08:12:45;;;;;;;5.07;1.30;;;;;;;24.90;46.49;102454.66;5113920;27;20026;-73
2023/10/05 08:15:18;;;;;;;2.38;1.05;;;;;;;23.96;49.11;102464.03;5103351;27;20049;-73
2023/10/05 08:17:43;;;;;;;;;;;;;;;25.61;45.41;102463.03;5124644;27;20050;-73
2023/10/05 08:20:10;;;;;;;6.88;1.55;;;;;;;25.74;44.33;102461.50;5132099;27;19961;-72
2023/10/05 08:22:36;;;;;;;5.45;1.08;;;;;;;23.63;47.48;102466.19;5105794;27;20119;-73
2023/10/05 08:25:10;;;;;;;5.43;1.17;;;;;;;23.80;46.64;102477.09;5121778;27;20023;-73
2023/10/05 08:27:37;;;;;;;5.60;0.98;;;;;;;24.63;45.93;102474.59;5097642;27;20458;-72
2023/10/05 08:30:03;;;;;;;4.70;1.00;;;;;;;24.62;45.66;102483.56;5112536;27;20387;-73
2023/10/05 08:32:32;;;;;;;1.85;1.20;;;;;;;24.64;45.23;102487.91;5108987;27;20027;-73
2023/10/05 08:34:58;;;;;;;3.22;1.02;;;;;;;23.45;47.54;102486.47;5112068;27;20490;-73
2023/10/05 08:37:23;;;;;;;4.55;0.80;;;;;;;25.17;44.67;102491.81;5100025;27;20060;-73
2023/10/05 08:39:51;;;;;;;1.45;1.05;;;;;;;24.48;45.82;102493.03;5097093;28;20065;-72
2023/10/05 08:42:17;;;;;;;1.27;0.65;;;;;;;23.60;47.33;102491.19;5095386;27;20498;-72
2023/10/05 08:44:43;;;;;;;4.00;0.90;;;;;;;23.34;48.56;102492.22;5110663;27;20081;-73
2023/10/05 08:47:12;;;;;;;12.43;1.52;;;;;;;24.53;46.02;102496.34;5113716;27;20031;-73
2023/10/05 08:49:39;;;;;;;7.97;0.90;;;;;;;24.76;45.52;102491.84;5113798;27;20027;-73
2023/10/05 08:52:14;;;;;;;3.08;0.90;;;;;;;23.60;48.12;102490.34;5108118;27;20502;-73
2023/10/05 08:54:40;;;;;;;3.45;0.70;;;;;;;24.19;46.87;102502.25;5117585;27;20023;-73
2023/10/05 08:57:12;;;;;;;7.57;1.58;;;;;;;25.25;45.37;102510.16;5129928;27;20063;-73
2023/10/05 08:59:39;;;;;;;3.70;1.00;;;;;;;24.96;45.28;102519.50;5082811;28;20046;-72
2023/10/05 09:02:07;;;;;;;6.88;2.03;;;;;;;24.81;46.11;102526.41;5112577;27;20061;-73
2023/10/05 09:04:47;;;;;;;5.80;0.85;;;;;;;23.36;49.02;102530.38;5092499;28;20442;-73
2023/10/05 09:07:35;;;;;;;4.93;1.10;;;;;;;23.42;49.30;102531.94;5102035;28;20552;-72
2023/10/05 09:10:14;;;;;;;6.32;1.05;;;;;;;24.82;46.46;102533.50;5122329;27;20068;-72
2023/10/05 09:12:41;;;;;;;7.03;1.27;;;;;;;24.93;46.04;102535.69;5110020;27;20479;-72
2023/10/05 09:17:58;;;;;;;4.38;1.00;;;;;;;24.28;47.35;102522.41;5121132;27;20440;-73
2023/10/05 09:20:33;;;;;;;2.25;1.00;;;;;;;24.65;46.72;102528.88;5110199;27;20058;-72
2023/10/05 09:23:00;;;;;;;2.88;0.90;;;;;;;23.96;46.49;102532.56;5117865;27;20760;-73
2023/10/05 09:25:37;;;;;;;8.10;1.40;;;;;;;24.12;47.19;102533.69;5092830;28;20035;-73
2023/10/05 09:28:13;;;;;;;2.55;1.00;;;;;;;23.98;47.34;102541.41;5097226;27;20467;-73
2023/10/05 09:31:07;;;;;;;7.25;1.00;;;;;;;24.75;45.59;102538.22;5108570;27;20542;-73
2023/10/05 09:33:35;;;;;;;3.65;1.27;;;;;;;23.84;47.34;102545.44;5105238;27;20057;-72
2023/10/05 09:36:22;;;;;;;5.10;0.90;;;;;;;23.53;48.28;102538.63;5101158;27;20042;-72
2023/10/05 09:38:48;;;;;;;5.22;1.00;;;;;;;24.96;45.23;102538.22;5113468;27;20049;-73
2023/10/05 09:41:19;;;;;;;6.72;1.10;;;;;;;24.64;45.54;102535.16;5107572;27;20033;-73
2023/10/05 09:43:51;;;;;;;3.47;0.93;;;;;;;24.12;46.75;102544.38;5111024;27;20031;-73
2023/10/05 09:46:17;;;;;;;6.43;1.20;;;;;;;24.74;46.52;102547.19;5111244;27;20394;-72
2023/10/05 09:48:43;;;;;;;3.42;0.85;;;;;;;23.81;47.70;102550.91;5106291;28;20023;-73
2023/10/05 09:51:11;;;;;;;5.60;1.10;;;;;;;24.81;45.76;102543.34;5122052;27;20411;-72
2023/10/05 09:53:42;;;;;;;4.78;0.90;;;;;;;25.38;44.81;102547.97;5097458;27;20027;-73
2023/10/05 09:56:12;;;;;;;4.35;1.08;;;;;;;24.24;46.23;102548.34;5091809;28;20026;-72
2023/10/05 09:58:39;;;;;;;2.78;0.60;;;;;;;23.77;47.45;102543.94;5111625;27;20499;-73
2023/10/05 10:01:20;;;;;;;4.15;1.20;;;;;;;25.21;45.41;102552.25;5115497;27;20043;-73
2023/10/05 10:03:45;;;;;;;4.63;1.48;;;;;;;24.38;46.72;102547.78;5102047;27;20019;-73
2023/10/05 10:06:14;;;;;;;10.55;2.08;;;;;;;24.54;46.18;102551.56;5111228;27;20023;-73
2023/10/05 10:08:57;;;;;;;6.10;1.50;;;;;;;24.18;46.84;102544.13;5108043;27;20057;-73
2023/10/05 10:11:27;;;;;;;2.20;0.80;;;;;;;25.21;44.82;102546.91;5092985;28;20027;-73
2023/10/05 10:14:07;;;;;;;4.93;1.25;;;;;;;25.54;44.28;102540.97;5093354;27;20505;-73
2023/10/05 10:16:34;;;;;;;6.03;1.70;;;;;;;25.99;43.65;102540.66;5115487;27;20386;-73
2023/10/05 10:19:08;;;;;;;6.63;1.25;;;;;;;26.00;43.22;102545.94;5100757;27;20062;-72
2023/10/05 10:21:46;;;;;;;4.80;1.15;;;;;;;25.74;44.09;102549.88;5121537;27;20027;-72
2023/10/05 10:24:17;;;;;;;4.93;0.90;;;;;;;24.32;45.55;102550.72;5115339;27;20026;-72
2023/10/05 10:27:07;;;;;;;4.40;0.93;;;;;;;23.88;46.85;102535.56;5110617;27;20536;-72
2023/10/05 10:30:01;;;;;;;3.17;1.10;;;;;;;25.31;44.46;102541.16;5109723;27;20479;-72
2023/10/05 10:32:32;;;;;;;4.35;1.10;;;;;;;24.78;44.79;102543.44;5104489;27;20038;-72
2023/10/05 10:35:26;;;;;;;7.63;1.55;;;;;;;25.39;44.14;102544.38;5111556;27;20494;-71
2023/10/05 10:37:54;;;;;;;3.63;1.10;;;;;;;24.08;46.69;102552.56;5104510;28;20028;-72
2023/10/05 10:45:41;;;;;;;3.60;0.80;;;;;;;25.36;43.73;102540.03;5129131;27;20122;-72
2023/10/05 10:48:14;;;;;;;3.92;1.15;;;;;;;26.37;42.57;102537.94;5125427;27;20054;-71
2023/10/05 10:50:40;;;;;;;6.43;1.20;;;;;;;26.38;42.41;102545.03;5109445;28;20031;-72
2023/10/05 10:53:18;;;;;;;3.85;0.90;;;;;;;24.12;45.47;102549.72;5114480;28;20942;-71
2023/10/05 10:55:46;;;;;;;4.10;1.35;;;;;;;23.77;46.05;102549.28;5109824;27;20398;-71
2023/10/05 10:58:16;;;;;;;6.50;1.00;;;;;;;25.61;43.90;102554.06;5117740;28;20031;-72
2023/10/05 11:01:40;;;;;;;4.25;1.15;;;;;;;23.85;46.13;102565.88;5111506;28;20047;-72
2023/10/05 11:04:15;;;;;;;4.05;0.80;;;;;;;24.80;44.71;102556.75;5039657;28;20140;-72
2023/10/05 11:06:42;;;;;;;3.10;0.95;;;;;;;24.92;44.24;102561.56;5092213;28;20032;-72
2023/10/05 11:09:10;;;;;;;4.95;1.08;;;;;;;25.59;44.27;102559.50;5109009;28;20024;-72
2023/10/05 11:11:39;;;;;;;3.40;0.75;;;;;;;25.79;44.99;102553.22;5107916;28;20405;-72
2023/10/05 11:14:07;;;;;;;6.75;1.38;;;;;;;24.21;47.30;102554.69;5091209;28;20058;-72
2023/10/05 11:16:46;;;;;;;9.52;1.42;;;;;;;25.46;44.76;102556.53;5113788;28;20489;-72
2023/10/05 11:19:17;;;;;;;3.78;0.90;;;;;;;24.97;45.10;102553.34;5116934;28;20034;-72
2023/10/05 11:21:46;;;;;;;4.78;1.10;;;;;;;25.85;43.78;102542.19;5116754;28;20036;-72
2023/10/05 11:24:16;;;;;;;5.82;0.93;;;;;;;26.84;42.12;102548.06;5096193;28;20064;-72
2023/10/05 11:29:20;;;;;;;4.20;1.10;;;;;;;25.62;43.59;102539.75;5124669;28;20031;-72
2023/10/05 11:31:47;;;;;;;4.95;1.00;;;;;;;25.84;42.66;102540.47;5111963;28;20111;-72
2023/10/05 11:34:12;;;;;;;8.50;1.25;;;;;;;25.57;42.35;102542.66;5099889;28;20027;-72
2023/10/05 11:36:44;;;;;;;10.23;1.77;;;;;;;26.07;42.22;102546.53;5105637;28;20038;-72
2023/10/05 11:39:22;;;;;;;2.47;1.10;;;;;;;26.44;41.97;102552.75;5110885;28;20122;-72
2023/10/05 11:41:48;;;;;;;2.50;0.82;;;;;;;26.48;42.94;102546.31;5130289;28;20129;-72
2023/10/05 11:44:23;;;;;;;7.45;1.23;;;;;;;26.33;41.47;102544.41;5108460;28;20168;-72
2023/10/05 11:46:53;;;;;;;8.27;1.15;;;;;;;26.75;40.72;102546.75;5109130;27;20062;-72
2023/10/05 11:49:20;;;;;;;5.95;1.35;;;;;;;26.55;41.18;102547.72;5116140;27;20118;-72
2023/10/05 11:51:56;;;;;;;2.97;0.80;;;;;;;27.37;39.51;102545.34;5125090;27;20382;-72
2023/10/05 11:54:32;;;;;;;4.45;1.17;;;;;;;25.70;41.42;102553.63;5122963;27;20467;-72
2023/10/05 11:56:59;;;;;;;4.78;1.00;;;;;;;26.35;40.77;102555.91;5123901;27;20059;-72
2023/10/05 11:59:29;;;;;;;5.10;0.95;;;;;;;26.39;40.23;102562.84;5092183;28;20083;-73